地図

経路データ

SID SEASON NUMBER BASIN SUBBASIN NAME ISO_TIME NATURE LAT LON WMO_WIND WMO_PRES WMO_AGENCY TRACK_TYPE DIST2LAND LANDFALL IFLAG USA_AGENCY USA_ATCF_ID USA_LAT USA_LON USA_RECORD USA_STATUS USA_WIND USA_PRES USA_SSHS USA_R34_NE USA_R34_SE USA_R34_SW USA_R34_NW USA_R50_NE USA_R50_SE USA_R50_SW USA_R50_NW USA_R64_NE USA_R64_SE USA_R64_SW USA_R64_NW USA_POCI USA_ROCI USA_RMW USA_EYE TOKYO_LAT TOKYO_LON TOKYO_GRADE TOKYO_WIND TOKYO_PRES TOKYO_R50_DIR TOKYO_R50_LONG TOKYO_R50_SHORT TOKYO_R30_DIR TOKYO_R30_LONG TOKYO_R30_SHORT TOKYO_LAND CMA_LAT CMA_LON CMA_CAT CMA_WIND CMA_PRES HKO_LAT HKO_LON HKO_CAT HKO_WIND HKO_PRES NEWDELHI_LAT NEWDELHI_LON NEWDELHI_GRADE NEWDELHI_WIND NEWDELHI_PRES NEWDELHI_CI NEWDELHI_DP NEWDELHI_POCI REUNION_LAT REUNION_LON REUNION_TYPE REUNION_WIND REUNION_PRES REUNION_TNUM REUNION_CI REUNION_RMW REUNION_R34_NE REUNION_R34_SE REUNION_R34_SW REUNION_R34_NW REUNION_R50_NE REUNION_R50_SE REUNION_R50_SW REUNION_R50_NW REUNION_R64_NE REUNION_R64_SE REUNION_R64_SW REUNION_R64_NW BOM_LAT BOM_LON BOM_TYPE BOM_WIND BOM_PRES BOM_TNUM BOM_CI BOM_RMW BOM_R34_NE BOM_R34_SE BOM_R34_SW BOM_R34_NW BOM_R50_NE BOM_R50_SE BOM_R50_SW BOM_R50_NW BOM_R64_NE BOM_R64_SE BOM_R64_SW BOM_R64_NW BOM_ROCI BOM_POCI BOM_EYE BOM_POS_METHOD BOM_PRES_METHOD NADI_LAT NADI_LON NADI_CAT NADI_WIND NADI_PRES WELLINGTON_LAT WELLINGTON_LON WELLINGTON_WIND WELLINGTON_PRES DS824_LAT DS824_LON DS824_STAGE DS824_WIND DS824_PRES TD9636_LAT TD9636_LON TD9636_STAGE TD9636_WIND TD9636_PRES TD9635_LAT TD9635_LON TD9635_WIND TD9635_PRES TD9635_ROCI NEUMANN_LAT NEUMANN_LON NEUMANN_CLASS NEUMANN_WIND NEUMANN_PRES MLC_LAT MLC_LON MLC_CLASS MLC_WIND MLC_PRES USA_GUST BOM_GUST BOM_GUST_PER REUNION_GUST REUNION_GUST_PER USA_SEAHGT USA_SEARAD_NE USA_SEARAD_SE USA_SEARAD_SW USA_SEARAD_NW STORM_SPEED STORM_DIR
1943286N15140 1943 73 WP MM NOT_NAMED 1943-10-13 00:00:00 NR 14.5000 140.000 main 1589 1547 __________O___ -1 14.5000 140.000 2 7 270
1943286N15140 1943 73 WP MM NOT_NAMED 1943-10-13 03:00:00 NR 14.5021 139.623 main 1547 1515 __________P___ -1 14.5021 139.623 2 7 270
1943286N15140 1943 73 WP MM NOT_NAMED 1943-10-13 06:00:00 NR 14.5032 139.258 main 1515 1472 __________P___ -1 14.5032 139.258 2 7 270
1943286N15140 1943 73 WP MM NOT_NAMED 1943-10-13 09:00:00 NR 14.5026 138.913 main 1472 1441 __________P___ -1 14.5026 138.913 2 6 270
1943286N15140 1943 73 WP MM NOT_NAMED 1943-10-13 12:00:00 NR 14.5000 138.600 main 1441 1409 __________O___ -1 14.5000 138.600 2 6 269
1943286N15140 1943 73 WP MM NOT_NAMED 1943-10-13 15:00:00 NR 14.4957 138.325 main 1409 1387 __________P___ -1 14.4957 138.325 2 5 269
1943286N15140 1943 73 WP MM NOT_NAMED 1943-10-13 18:00:00 NR 14.4921 138.077 main 1387 1366 __________P___ -1 14.4921 138.077 2 5 270
1943286N15140 1943 73 WP MM NOT_NAMED 1943-10-13 21:00:00 NR 14.4926 137.841 main 1355 1334 __________P___ -1 14.4926 137.841 2 5 271
1943286N15140 1943 73 WP MM NOT_NAMED 1943-10-14 00:00:00 NR 14.5000 137.600 main 1334 1302 __________O___ -1 14.5000 137.600 2 5 272
1943286N15140 1943 73 WP MM NOT_NAMED 1943-10-14 03:00:00 NR 14.5137 137.332 main 1302 1281 __________P___ -1 14.5137 137.332 2 5 274
1943286N15140 1943 73 WP MM NOT_NAMED 1943-10-14 06:00:00 NR 14.5349 137.057 main 1281 1251 __________P___ -1 14.5349 137.057 2 5 275
1943286N15140 1943 73 WP MM NOT_NAMED 1943-10-14 09:00:00 NR 14.5637 136.779 main 1251 1220 __________P___ -1 14.5637 136.779 2 5 277
1943286N15140 1943 73 WP MM NOT_NAMED 1943-10-14 12:00:00 NR 14.6000 136.500 main 1220 1188 __________O___ -1 14.6000 136.500 2 5 278
1943286N15140 1943 73 WP MM NOT_NAMED 1943-10-14 15:00:00 NR 14.6387 136.221 main 1188 1169 __________P___ -1 14.6387 136.221 2 5 279
1943286N15140 1943 73 WP MM NOT_NAMED 1943-10-14 18:00:00 NR 14.6849 135.942 main 1159 1138 __________P___ -1 14.6849 135.942 2 5 281
1943286N15140 1943 73 WP MM NOT_NAMED 1943-10-14 21:00:00 NR 14.7387 135.668 main 1138 1109 __________P___ -1 14.7387 135.668 2 5 282
1943286N15140 1943 73 WP MM NOT_NAMED 1943-10-15 00:00:00 NR 14.8000 135.400 main 1109 1088 __________O___ -1 14.8000 135.400 2 5 284
1943286N15140 1943 73 WP MM NOT_NAMED 1943-10-15 03:00:00 NR 14.8636 135.147 main 1081 1060 __________P___ -1 14.8636 135.147 2 5 286
1943286N15140 1943 73 WP MM NOT_NAMED 1943-10-15 06:00:00 NR 14.9348 134.900 main 1060 1042 __________P___ -1 14.9348 134.900 2 5 287
1943286N15140 1943 73 WP MM NOT_NAMED 1943-10-15 09:00:00 NR 15.0136 134.653 main 1042 1015 __________P___ -1 15.0136 134.653 2 5 289
1943286N15140 1943 73 WP MM NOT_NAMED 1943-10-15 12:00:00 NR 15.1000 134.400 main 1015 988 __________O___ -1 15.1000 134.400 2 5 289
1943286N15140 1943 73 WP MM NOT_NAMED 1943-10-15 15:00:00 NR 15.1846 134.132 main 988 967 __________P___ -1 15.1846 134.132 2 6 289
1943286N15140 1943 73 WP MM NOT_NAMED 1943-10-15 18:00:00 NR 15.2774 133.857 main 971 945 __________P___ -1 15.2774 133.857 2 6 290
1943286N15140 1943 73 WP MM NOT_NAMED 1943-10-15 21:00:00 NR 15.3815 133.579 main 945 919 __________P___ -1 15.3815 133.579 2 6 293
1943286N15140 1943 73 WP MM NOT_NAMED 1943-10-16 00:00:00 NR 15.5000 133.300 main 919 894 __________O___ -1 15.5000 133.300 2 6 295
1943286N15140 1943 73 WP MM NOT_NAMED 1943-10-16 03:00:00 NR 15.6233 133.029 main 894 880 __________P___ -1 15.6233 133.029 2 6 297
1943286N15140 1943 73 WP MM NOT_NAMED 1943-10-16 06:00:00 NR 15.7623 132.757 main 884 861 __________P___ -1 15.7623 132.757 2 6 299
1943286N15140 1943 73 WP MM NOT_NAMED 1943-10-16 09:00:00 NR 15.9202 132.482 main 861 844 __________P___ -1 15.9202 132.482 2 6 302
1943286N15140 1943 73 WP MM NOT_NAMED 1943-10-16 12:00:00 NR 16.1000 132.200 main 844 828 __________O___ -1 16.1000 132.200 2 7 303
1943286N15140 1943 73 WP MM NOT_NAMED 1943-10-16 15:00:00 NR 16.2790 131.903 main 828 814 __________P___ -1 16.2790 131.903 2 7 304
1943286N15140 1943 73 WP MM NOT_NAMED 1943-10-16 18:00:00 NR 16.4825 131.600 main 814 802 __________P___ -1 16.4825 131.600 2 7 307
1943286N15140 1943 73 WP MM NOT_NAMED 1943-10-16 21:00:00 NR 16.7197 131.297 main 802 783 __________P___ -1 16.7197 131.297 2 8 312
1943286N15140 1943 73 WP MM NOT_NAMED 1943-10-17 00:00:00 NR 17.0000 131.000 main 788 774 __________O___ -1 17.0000 131.000 2 8 318
1943286N15140 1943 73 WP MM NOT_NAMED 1943-10-17 03:00:00 NR 17.3277 130.714 main 774 767 __________P___ -1 17.3277 130.714 2 9 322
1943286N15140 1943 73 WP MM NOT_NAMED 1943-10-17 06:00:00 NR 17.6974 130.435 main 770 767 __________P___ -1 17.6974 130.435 2 9 326
1943286N15140 1943 73 WP MM NOT_NAMED 1943-10-17 09:00:00 NR 18.0934 130.164 main 778 769 __________P___ -1 18.0934 130.164 2 10 328
1943286N15140 1943 73 WP MM NOT_NAMED 1943-10-17 12:00:00 NR 18.5000 129.900 main 780 780 __________O___ -1 18.5000 129.900 2 9 329
1943286N15140 1943 73 WP MM NOT_NAMED 1943-10-17 15:00:00 NR 18.8925 129.654 main 781 752 __________P___ -1 18.8925 129.654 2 9 330
1943286N15140 1943 73 WP MM NOT_NAMED 1943-10-17 18:00:00 NR 19.2921 129.414 main 753 737 __________P___ -1 19.2921 129.414 2 9 330
1943286N15140 1943 73 WP MM NOT_NAMED 1943-10-17 21:00:00 NR 19.6956 129.167 main 739 718 __________P___ -1 19.6956 129.167 2 9 329
1943286N15140 1943 73 WP MM NOT_NAMED 1943-10-18 00:00:00 NR 20.1000 128.900 main 718 697 __________O___ -1 20.1000 128.900 2 10 322
1943286N15140 1943 73 WP MM NOT_NAMED 1943-10-18 03:00:00 NR 20.4721 128.529 main 691 669 __________P___ -1 20.4721 128.529 2 10 317
1943286N15140 1943 73 WP MM NOT_NAMED 1943-10-18 06:00:00 NR 20.8483 128.147 main 664 655 __________P___ -1 20.8483 128.147 2 10 319
1943286N15140 1943 73 WP MM NOT_NAMED 1943-10-18 09:00:00 NR 21.2502 127.816 main 660 656 __________P___ -1 21.2502 127.816 2 10 329
1943286N15140 1943 73 WP MM NOT_NAMED 1943-10-18 12:00:00 NR 21.7000 127.600 main 656 621 __________O___ -1 21.7000 127.600 2 11 346
1943286N15140 1943 73 WP MM NOT_NAMED 1943-10-18 15:00:00 NR 22.2850 127.548 main 621 606 __________P___ -1 22.2850 127.548 2 12 0
1943286N15140 1943 73 WP MM NOT_NAMED 1943-10-18 18:00:00 NR 22.9093 127.618 main 606 601 __________P___ -1 22.9093 127.618 2 12 10
1943286N15140 1943 73 WP MM NOT_NAMED 1943-10-18 21:00:00 NR 23.5040 127.779 main 609 604 __________P___ -1 23.5040 127.779 2 12 18
1943286N15140 1943 73 WP MM NOT_NAMED 1943-10-19 00:00:00 NR 24.0000 128.000 main 616 614 __________O___ -1 24.0000 128.000 2 9 26
1943286N15140 1943 73 WP MM NOT_NAMED 1943-10-19 03:00:00 NR 24.3077 128.213 main 630 630 __________P___ -1 24.3077 128.213 2 7 40
1943286N15140 1943 73 WP MM NOT_NAMED 1943-10-19 06:00:00 NR 24.5124 128.476 main 658 658 __________P___ -1 24.5124 128.476 2 6 55
1943286N15140 1943 73 WP MM NOT_NAMED 1943-10-19 09:00:00 NR 24.6608 128.776 main 686 686 __________P___ -1 24.6608 128.776 2 6 63
1943286N15140 1943 73 WP MM NOT_NAMED 1943-10-19 12:00:00 NR 24.8000 129.100 main 709 681 __________O___ -1 24.8000 129.100 2 7 63
1943286N15140 1943 73 WP MM NOT_NAMED 1943-10-19 15:00:00 NR 24.9675 129.438 main 681 653 __________P___ -1 24.9675 129.438 2 7 60
1943286N15140 1943 73 WP MM NOT_NAMED 1943-10-19 18:00:00 NR 25.1632 129.786 main 653 627 __________P___ -1 25.1632 129.786 2 8 57
1943286N15140 1943 73 WP MM NOT_NAMED 1943-10-19 21:00:00 NR 25.3772 130.141 main 627 603 __________P___ -1 25.3772 130.141 2 8 56
1943286N15140 1943 73 WP MM NOT_NAMED 1943-10-20 00:00:00 NR 25.6000 130.500 main 603 __________O___ -1 25.6000 130.500 2 8 56

デジタル台風データ・検索

IBTrACS Databaseについて

本データベースは、米国NOAAが公開する1842年以降の世界の熱帯低気圧のベストトラックデータアーカイブInternational Best Track Archive for Climate Stewardship (IBTrACS)を、ウェブで閲覧しやすい形式に変換したものです。

最終更新日:2021-10-08